sensor_id;sensor_type;location;lat;lon;timestamp;P1;durP1;ratioP1;P2;durP2;ratioP2
59167;SDS011;44948;55.046;73.266;2022-08-19T00:00:19;0.73;;;0.40;;
59167;SDS011;44948;55.046;73.266;2022-08-19T00:02:04;1.95;;;0.35;;
59167;SDS011;44948;55.046;73.266;2022-08-19T00:03:47;2.28;;;0.50;;
59167;SDS011;44948;55.046;73.266;2022-08-19T00:05:30;1.00;;;0.45;;
59167;SDS011;44948;55.046;73.266;2022-08-19T00:07:13;2.70;;;0.40;;
59167;SDS011;44948;55.046;73.266;2022-08-19T00:08:56;3.22;;;0.40;;
59167;SDS011;44948;55.046;73.266;2022-08-19T00:10:42;1.10;;;0.50;;
59167;SDS011;44948;55.046;73.266;2022-08-19T00:12:25;0.82;;;0.50;;
59167;SDS011;44948;55.046;73.266;2022-08-19T00:14:08;0.60;;;0.40;;
59167;SDS011;44948;55.046;73.266;2022-08-19T00:15:51;1.42;;;0.50;;
59167;SDS011;44948;55.046;73.266;2022-08-19T00:17:34;1.02;;;0.60;;
59167;SDS011;44948;55.046;73.266;2022-08-19T00:19:16;2.67;;;0.50;;
59167;SDS011;44948;55.046;73.266;2022-08-19T00:20:58;2.25;;;0.38;;
59167;SDS011;44948;55.046;73.266;2022-08-19T00:22:41;1.95;;;0.43;;
59167;SDS011;44948;55.046;73.266;2022-08-19T00:24:24;0.65;;;0.40;;
59167;SDS011;44948;55.046;73.266;2022-08-19T00:26:09;1.67;;;0.57;;
59167;SDS011;44948;55.046;73.266;2022-08-19T00:27:53;1.40;;;0.60;;
59167;SDS011;44948;55.046;73.266;2022-08-19T00:29:36;2.53;;;0.57;;
59167;SDS011;44948;55.046;73.266;2022-08-19T00:31:21;2.50;;;0.60;;
59167;SDS011;44948;55.046;73.266;2022-08-19T00:33:07;2.20;;;0.55;;
59167;SDS011;44948;55.046;73.266;2022-08-19T00:34:49;1.63;;;0.47;;
59167;SDS011;44948;55.046;73.266;2022-08-19T00:36:34;1.15;;;0.50;;
59167;SDS011;44948;55.046;73.266;2022-08-19T00:38:19;3.22;;;0.75;;
59167;SDS011;44948;55.046;73.266;2022-08-19T00:40:04;0.90;;;0.50;;
59167;SDS011;44948;55.046;73.266;2022-08-19T00:41:48;1.63;;;0.80;;
59167;SDS011;44948;55.046;73.266;2022-08-19T00:43:33;3.92;;;0.95;;
59167;SDS011;44948;55.046;73.266;2022-08-19T00:45:17;1.50;;;0.57;;
59167;SDS011;44948;55.046;73.266;2022-08-19T00:47:02;1.40;;;0.45;;
59167;SDS011;44948;55.046;73.266;2022-08-19T00:48:44;1.02;;;0.63;;
59167;SDS011;44948;55.046;73.266;2022-08-19T00:50:29;0.75;;;0.52;;
59167;SDS011;44948;55.046;73.266;2022-08-19T00:52:22;1.65;;;0.73;;
59167;SDS011;44948;55.046;73.266;2022-08-19T00:54:10;4.10;;;0.50;;
59167;SDS011;44948;55.046;73.266;2022-08-19T00:55:56;0.82;;;0.60;;
59167;SDS011;44948;55.046;73.266;2022-08-19T00:57:46;3.13;;;0.63;;
59167;SDS011;44948;55.046;73.266;2022-08-19T00:59:34;3.67;;;0.60;;
59167;SDS011;44948;55.046;73.266;2022-08-19T01:01:19;6.30;;;1.02;;
59167;SDS011;44948;55.046;73.266;2022-08-19T01:03:07;5.25;;;0.85;;
59167;SDS011;44948;55.046;73.266;2022-08-19T01:04:51;7.63;;;1.08;;
59167;SDS011;44948;55.046;73.266;2022-08-19T01:06:33;1.48;;;0.65;;
59167;SDS011;44948;55.046;73.266;2022-08-19T01:08:17;2.33;;;0.80;;
59167;SDS011;44948;55.046;73.266;2022-08-19T01:10:01;3.33;;;0.60;;
59167;SDS011;44948;55.046;73.266;2022-08-19T01:11:45;1.80;;;0.60;;
59167;SDS011;44948;55.046;73.266;2022-08-19T01:13:29;1.38;;;0.50;;
59167;SDS011;44948;55.046;73.266;2022-08-19T01:15:16;3.08;;;0.50;;
59167;SDS011;44948;55.046;73.266;2022-08-19T01:17:03;2.97;;;0.50;;
59167;SDS011;44948;55.046;73.266;2022-08-19T01:18:47;4.43;;;0.75;;
59167;SDS011;44948;55.046;73.266;2022-08-19T01:20:30;1.85;;;0.57;;
59167;SDS011;44948;55.046;73.266;2022-08-19T01:22:30;5.60;;;0.60;;
59167;SDS011;44948;55.046;73.266;2022-08-19T01:24:21;1.40;;;0.57;;
59167;SDS011;44948;55.046;73.266;2022-08-19T01:26:06;5.38;;;0.80;;
59167;SDS011;44948;55.046;73.266;2022-08-19T01:27:54;4.55;;;0.50;;
59167;SDS011;44948;55.046;73.266;2022-08-19T01:29:39;8.88;;;1.02;;
59167;SDS011;44948;55.046;73.266;2022-08-19T01:31:26;6.28;;;0.95;;
59167;SDS011;44948;55.046;73.266;2022-08-19T01:33:16;3.40;;;0.95;;
59167;SDS011;44948;55.046;73.266;2022-08-19T01:35:02;3.25;;;0.70;;
59167;SDS011;44948;55.046;73.266;2022-08-19T01:36:46;11.93;;;1.42;;
59167;SDS011;44948;55.046;73.266;2022-08-19T01:38:34;7.35;;;1.50;;
59167;SDS011;44948;55.046;73.266;2022-08-19T01:40:21;7.35;;;0.80;;
59167;SDS011;44948;55.046;73.266;2022-08-19T01:42:10;6.50;;;0.90;;
59167;SDS011;44948;55.046;73.266;2022-08-19T01:43:57;3.60;;;0.50;;
59167;SDS011;44948;55.046;73.266;2022-08-19T01:45:40;2.78;;;0.95;;
59167;SDS011;44948;55.046;73.266;2022-08-19T01:47:22;9.48;;;1.15;;
59167;SDS011;44948;55.046;73.266;2022-08-19T01:49:06;5.30;;;1.00;;
59167;SDS011;44948;55.046;73.266;2022-08-19T01:50:51;3.88;;;0.80;;
59167;SDS011;44948;55.046;73.266;2022-08-19T01:52:37;3.05;;;0.90;;
59167;SDS011;44948;55.046;73.266;2022-08-19T01:54:24;4.68;;;0.90;;
59167;SDS011;44948;55.046;73.266;2022-08-19T01:56:10;6.85;;;0.88;;
59167;SDS011;44948;55.046;73.266;2022-08-19T01:57:54;4.78;;;1.33;;
59167;SDS011;44948;55.046;73.266;2022-08-19T01:59:40;4.50;;;1.10;;
59167;SDS011;44948;55.046;73.266;2022-08-19T02:01:24;3.40;;;0.95;;
59167;SDS011;44948;55.046;73.266;2022-08-19T02:03:06;2.10;;;0.90;;
59167;SDS011;44948;55.046;73.266;2022-08-19T02:04:51;5.95;;;1.10;;
59167;SDS011;44948;55.046;73.266;2022-08-19T02:06:35;3.60;;;0.98;;
59167;SDS011;44948;55.046;73.266;2022-08-19T02:08:18;3.60;;;0.95;;
59167;SDS011;44948;55.046;73.266;2022-08-19T02:10:07;2.13;;;0.95;;
59167;SDS011;44948;55.046;73.266;2022-08-19T02:11:53;3.67;;;0.90;;
59167;SDS011;44948;55.046;73.266;2022-08-19T02:13:38;2.40;;;1.10;;
59167;SDS011;44948;55.046;73.266;2022-08-19T02:15:20;2.30;;;1.10;;
59167;SDS011;44948;55.046;73.266;2022-08-19T02:17:07;5.70;;;1.60;;
59167;SDS011;44948;55.046;73.266;2022-08-19T02:18:49;5.73;;;1.40;;
59167;SDS011;44948;55.046;73.266;2022-08-19T02:20:32;2.92;;;1.45;;
59167;SDS011;44948;55.046;73.266;2022-08-19T02:22:15;3.95;;;1.58;;
59167;SDS011;44948;55.046;73.266;2022-08-19T02:24:00;5.10;;;1.60;;
59167;SDS011;44948;55.046;73.266;2022-08-19T02:25:44;5.47;;;1.42;;
59167;SDS011;44948;55.046;73.266;2022-08-19T02:27:31;3.15;;;1.27;;
59167;SDS011;44948;55.046;73.266;2022-08-19T02:29:14;3.28;;;1.23;;
59167;SDS011;44948;55.046;73.266;2022-08-19T02:30:57;10.57;;;1.42;;
59167;SDS011;44948;55.046;73.266;2022-08-19T02:32:40;6.55;;;1.10;;
59167;SDS011;44948;55.046;73.266;2022-08-19T02:34:23;2.42;;;0.80;;
59167;SDS011;44948;55.046;73.266;2022-08-19T02:36:06;1.55;;;0.90;;
59167;SDS011;44948;55.046;73.266;2022-08-19T02:37:50;4.38;;;1.10;;
59167;SDS011;44948;55.046;73.266;2022-08-19T02:39:50;4.57;;;1.17;;
59167;SDS011;44948;55.046;73.266;2022-08-19T02:41:33;1.30;;;0.75;;
59167;SDS011;44948;55.046;73.266;2022-08-19T02:43:16;3.63;;;1.10;;
59167;SDS011;44948;55.046;73.266;2022-08-19T02:44:58;1.80;;;0.77;;
59167;SDS011;44948;55.046;73.266;2022-08-19T02:46:41;3.15;;;0.98;;
59167;SDS011;44948;55.046;73.266;2022-08-19T02:48:24;3.55;;;1.17;;
59167;SDS011;44948;55.046;73.266;2022-08-19T02:50:10;4.68;;;1.67;;
59167;SDS011;44948;55.046;73.266;2022-08-19T02:51:58;3.95;;;0.90;;
59167;SDS011;44948;55.046;73.266;2022-08-19T02:53:40;2.35;;;0.90;;
59167;SDS011;44948;55.046;73.266;2022-08-19T02:55:25;4.50;;;1.15;;
59167;SDS011;44948;55.046;73.266;2022-08-19T02:57:08;2.72;;;1.20;;
59167;SDS011;44948;55.046;73.266;2022-08-19T02:58:50;3.47;;;1.10;;
59167;SDS011;44948;55.046;73.266;2022-08-19T03:00:33;5.10;;;1.37;;
59167;SDS011;44948;55.046;73.266;2022-08-19T03:02:16;3.53;;;1.25;;
59167;SDS011;44948;55.046;73.266;2022-08-19T03:03:59;2.17;;;1.00;;
59167;SDS011;44948;55.046;73.266;2022-08-19T03:05:45;1.58;;;1.13;;
59167;SDS011;44948;55.046;73.266;2022-08-19T03:07:29;2.90;;;0.70;;
59167;SDS011;44948;55.046;73.266;2022-08-19T03:09:14;3.40;;;0.70;;
59167;SDS011;44948;55.046;73.266;2022-08-19T03:11:00;6.20;;;1.00;;
59167;SDS011;44948;55.046;73.266;2022-08-19T03:12:43;2.27;;;1.40;;
59167;SDS011;44948;55.046;73.266;2022-08-19T03:14:29;1.60;;;0.80;;
59167;SDS011;44948;55.046;73.266;2022-08-19T03:16:12;5.90;;;1.00;;
59167;SDS011;44948;55.046;73.266;2022-08-19T03:17:55;3.17;;;0.83;;
59167;SDS011;44948;55.046;73.266;2022-08-19T03:19:43;5.28;;;0.65;;
59167;SDS011;44948;55.046;73.266;2022-08-19T03:21:26;2.37;;;0.67;;
59167;SDS011;44948;55.046;73.266;2022-08-19T03:23:11;2.90;;;1.33;;
59167;SDS011;44948;55.046;73.266;2022-08-19T03:24:56;2.03;;;0.57;;
59167;SDS011;44948;55.046;73.266;2022-08-19T03:26:41;6.82;;;1.10;;
59167;SDS011;44948;55.046;73.266;2022-08-19T03:28:33;4.63;;;1.10;;
59167;SDS011;44948;55.046;73.266;2022-08-19T03:30:18;2.03;;;0.80;;
59167;SDS011;44948;55.046;73.266;2022-08-19T03:32:05;4.05;;;0.60;;
59167;SDS011;44948;55.046;73.266;2022-08-19T03:33:47;8.80;;;1.10;;
59167;SDS011;44948;55.046;73.266;2022-08-19T03:37:12;3.28;;;1.00;;
59167;SDS011;44948;55.046;73.266;2022-08-19T03:38:56;2.08;;;1.25;;
59167;SDS011;44948;55.046;73.266;2022-08-19T03:40:41;3.55;;;1.02;;
59167;SDS011;44948;55.046;73.266;2022-08-19T03:42:24;3.20;;;1.05;;
59167;SDS011;44948;55.046;73.266;2022-08-19T03:44:08;1.60;;;0.90;;
59167;SDS011;44948;55.046;73.266;2022-08-19T03:45:59;1.90;;;0.85;;
59167;SDS011;44948;55.046;73.266;2022-08-19T03:47:52;6.85;;;3.20;;
59167;SDS011;44948;55.046;73.266;2022-08-19T03:49:34;4.75;;;1.55;;
59167;SDS011;44948;55.046;73.266;2022-08-19T03:51:18;4.13;;;1.00;;
59167;SDS011;44948;55.046;73.266;2022-08-19T03:53:05;3.60;;;1.00;;
59167;SDS011;44948;55.046;73.266;2022-08-19T03:54:50;3.13;;;0.88;;
59167;SDS011;44948;55.046;73.266;2022-08-19T03:56:35;3.47;;;1.50;;
59167;SDS011;44948;55.046;73.266;2022-08-19T03:58:19;2.50;;;0.85;;
59167;SDS011;44948;55.046;73.266;2022-08-19T04:00:06;1.65;;;1.00;;
59167;SDS011;44948;55.046;73.266;2022-08-19T04:01:56;3.00;;;0.90;;
59167;SDS011;44948;55.046;73.266;2022-08-19T04:03:45;3.42;;;0.90;;
59167;SDS011;44948;55.046;73.266;2022-08-19T04:05:33;2.65;;;0.93;;
59167;SDS011;44948;55.046;73.266;2022-08-19T04:07:16;2.42;;;0.70;;
59167;SDS011;44948;55.046;73.266;2022-08-19T04:09:06;1.80;;;0.93;;
59167;SDS011;44948;55.046;73.266;2022-08-19T04:10:50;3.53;;;1.40;;
59167;SDS011;44948;55.046;73.266;2022-08-19T04:12:32;6.88;;;1.00;;
59167;SDS011;44948;55.046;73.266;2022-08-19T04:14:19;4.07;;;0.80;;
59167;SDS011;44948;55.046;73.266;2022-08-19T04:16:06;3.40;;;0.90;;
59167;SDS011;44948;55.046;73.266;2022-08-19T04:17:48;2.85;;;1.30;;
59167;SDS011;44948;55.046;73.266;2022-08-19T04:19:31;4.38;;;1.50;;
59167;SDS011;44948;55.046;73.266;2022-08-19T04:21:19;2.47;;;1.15;;
59167;SDS011;44948;55.046;73.266;2022-08-19T04:23:11;4.63;;;2.28;;
59167;SDS011;44948;55.046;73.266;2022-08-19T04:25:00;5.57;;;2.45;;
59167;SDS011;44948;55.046;73.266;2022-08-19T04:26:43;8.82;;;3.50;;
59167;SDS011;44948;55.046;73.266;2022-08-19T04:28:29;4.35;;;1.98;;
59167;SDS011;44948;55.046;73.266;2022-08-19T04:30:12;4.00;;;2.10;;
59167;SDS011;44948;55.046;73.266;2022-08-19T04:31:58;4.00;;;1.05;;
59167;SDS011;44948;55.046;73.266;2022-08-19T04:33:50;5.82;;;1.98;;
59167;SDS011;44948;55.046;73.266;2022-08-19T04:35:36;5.05;;;1.63;;
59167;SDS011;44948;55.046;73.266;2022-08-19T04:37:23;7.78;;;2.00;;
59167;SDS011;44948;55.046;73.266;2022-08-19T04:39:11;6.22;;;2.22;;
59167;SDS011;44948;55.046;73.266;2022-08-19T04:40:59;5.97;;;2.90;;
59167;SDS011;44948;55.046;73.266;2022-08-19T04:43:03;6.32;;;1.85;;
59167;SDS011;44948;55.046;73.266;2022-08-19T04:44:53;6.75;;;1.90;;
59167;SDS011;44948;55.046;73.266;2022-08-19T04:46:36;2.95;;;1.65;;
59167;SDS011;44948;55.046;73.266;2022-08-19T04:48:19;2.55;;;1.15;;
59167;SDS011;44948;55.046;73.266;2022-08-19T04:50:10;3.35;;;1.20;;
59167;SDS011;44948;55.046;73.266;2022-08-19T04:51:53;6.18;;;1.23;;
59167;SDS011;44948;55.046;73.266;2022-08-19T04:53:37;8.90;;;2.10;;
59167;SDS011;44948;55.046;73.266;2022-08-19T04:55:26;6.60;;;2.38;;
59167;SDS011;44948;55.046;73.266;2022-08-19T04:57:12;11.13;;;2.15;;
59167;SDS011;44948;55.046;73.266;2022-08-19T04:59:00;13.10;;;2.95;;
59167;SDS011;44948;55.046;73.266;2022-08-19T05:00:45;8.77;;;3.08;;
59167;SDS011;44948;55.046;73.266;2022-08-19T05:02:34;32.15;;;5.30;;
59167;SDS011;44948;55.046;73.266;2022-08-19T05:04:18;6.75;;;2.42;;
59167;SDS011;44948;55.046;73.266;2022-08-19T05:06:11;4.50;;;1.67;;
59167;SDS011;44948;55.046;73.266;2022-08-19T05:08:01;9.73;;;2.45;;
59167;SDS011;44948;55.046;73.266;2022-08-19T05:09:46;7.82;;;1.73;;
59167;SDS011;44948;55.046;73.266;2022-08-19T05:11:34;15.20;;;1.77;;
59167;SDS011;44948;55.046;73.266;2022-08-19T05:13:20;5.13;;;1.63;;
59167;SDS011;44948;55.046;73.266;2022-08-19T05:15:15;2.05;;;0.90;;
59167;SDS011;44948;55.046;73.266;2022-08-19T05:17:03;9.30;;;2.20;;
59167;SDS011;44948;55.046;73.266;2022-08-19T05:18:51;14.40;;;2.78;;
59167;SDS011;44948;55.046;73.266;2022-08-19T05:21:05;26.05;;;4.20;;
59167;SDS011;44948;55.046;73.266;2022-08-19T05:23:20;6.65;;;1.90;;
59167;SDS011;44948;55.046;73.266;2022-08-19T05:25:07;9.82;;;2.15;;
59167;SDS011;44948;55.046;73.266;2022-08-19T05:26:54;6.03;;;1.90;;
59167;SDS011;44948;55.046;73.266;2022-08-19T05:28:40;4.88;;;1.20;;
59167;SDS011;44948;55.046;73.266;2022-08-19T05:30:22;7.05;;;1.77;;
59167;SDS011;44948;55.046;73.266;2022-08-19T05:32:05;5.85;;;1.73;;
59167;SDS011;44948;55.046;73.266;2022-08-19T05:33:52;3.25;;;1.30;;
59167;SDS011;44948;55.046;73.266;2022-08-19T05:35:35;3.42;;;0.90;;
59167;SDS011;44948;55.046;73.266;2022-08-19T05:37:22;5.13;;;1.10;;
59167;SDS011;44948;55.046;73.266;2022-08-19T05:39:08;4.18;;;0.95;;
59167;SDS011;44948;55.046;73.266;2022-08-19T05:40:53;1.83;;;0.90;;
59167;SDS011;44948;55.046;73.266;2022-08-19T05:42:39;1.77;;;1.10;;
59167;SDS011;44948;55.046;73.266;2022-08-19T05:44:23;3.03;;;1.30;;
59167;SDS011;44948;55.046;73.266;2022-08-19T05:46:06;13.60;;;2.10;;
59167;SDS011;44948;55.046;73.266;2022-08-19T05:47:50;25.00;;;4.35;;
59167;SDS011;44948;55.046;73.266;2022-08-19T05:49:37;18.52;;;2.38;;
59167;SDS011;44948;55.046;73.266;2022-08-19T05:51:19;11.18;;;2.70;;
59167;SDS011;44948;55.046;73.266;2022-08-19T05:53:06;7.38;;;1.60;;
59167;SDS011;44948;55.046;73.266;2022-08-19T05:54:50;2.90;;;1.20;;
59167;SDS011;44948;55.046;73.266;2022-08-19T05:56:40;2.95;;;0.93;;
59167;SDS011;44948;55.046;73.266;2022-08-19T05:58:25;3.03;;;1.10;;
59167;SDS011;44948;55.046;73.266;2022-08-19T06:00:07;6.75;;;1.20;;
59167;SDS011;44948;55.046;73.266;2022-08-19T06:01:54;2.33;;;0.80;;
59167;SDS011;44948;55.046;73.266;2022-08-19T06:03:45;4.03;;;1.20;;
59167;SDS011;44948;55.046;73.266;2022-08-19T06:05:30;5.90;;;2.20;;
59167;SDS011;44948;55.046;73.266;2022-08-19T06:07:13;22.63;;;3.40;;
59167;SDS011;44948;55.046;73.266;2022-08-19T06:09:06;24.77;;;3.47;;
59167;SDS011;44948;55.046;73.266;2022-08-19T06:10:52;16.60;;;2.85;;
59167;SDS011;44948;55.046;73.266;2022-08-19T06:12:37;7.30;;;1.40;;
59167;SDS011;44948;55.046;73.266;2022-08-19T06:14:21;6.35;;;1.15;;
59167;SDS011;44948;55.046;73.266;2022-08-19T06:16:06;5.47;;;1.60;;
59167;SDS011;44948;55.046;73.266;2022-08-19T06:17:48;6.27;;;1.70;;
59167;SDS011;44948;55.046;73.266;2022-08-19T06:19:34;9.55;;;1.92;;
59167;SDS011;44948;55.046;73.266;2022-08-19T06:21:20;6.35;;;1.25;;
59167;SDS011;44948;55.046;73.266;2022-08-19T06:23:04;15.68;;;4.20;;
59167;SDS011;44948;55.046;73.266;2022-08-19T06:24:52;34.95;;;6.30;;
59167;SDS011;44948;55.046;73.266;2022-08-19T06:26:39;43.00;;;5.88;;
59167;SDS011;44948;55.046;73.266;2022-08-19T06:28:26;24.35;;;5.82;;
59167;SDS011;44948;55.046;73.266;2022-08-19T06:30:14;60.80;;;9.73;;
59167;SDS011;44948;55.046;73.266;2022-08-19T06:32:02;38.47;;;6.85;;
59167;SDS011;44948;55.046;73.266;2022-08-19T06:33:48;14.82;;;2.47;;
59167;SDS011;44948;55.046;73.266;2022-08-19T06:35:38;7.72;;;2.00;;
59167;SDS011;44948;55.046;73.266;2022-08-19T06:37:25;6.50;;;1.70;;
59167;SDS011;44948;55.046;73.266;2022-08-19T06:39:11;16.65;;;2.72;;
59167;SDS011;44948;55.046;73.266;2022-08-19T06:41:05;11.68;;;2.40;;
59167;SDS011;44948;55.046;73.266;2022-08-19T06:42:51;9.98;;;2.15;;
59167;SDS011;44948;55.046;73.266;2022-08-19T06:44:47;4.78;;;1.38;;
59167;SDS011;44948;55.046;73.266;2022-08-19T06:46:30;5.32;;;1.80;;
59167;SDS011;44948;55.046;73.266;2022-08-19T06:48:13;6.88;;;1.17;;
59167;SDS011;44948;55.046;73.266;2022-08-19T06:49:55;4.77;;;1.43;;
59167;SDS011;44948;55.046;73.266;2022-08-19T06:51:44;9.15;;;1.73;;
59167;SDS011;44948;55.046;73.266;2022-08-19T06:53:35;5.38;;;1.63;;
59167;SDS011;44948;55.046;73.266;2022-08-19T06:55:20;15.90;;;3.08;;
59167;SDS011;44948;55.046;73.266;2022-08-19T06:57:06;15.50;;;2.95;;
59167;SDS011;44948;55.046;73.266;2022-08-19T06:58:54;11.18;;;2.20;;
59167;SDS011;44948;55.046;73.266;2022-08-19T07:00:37;33.63;;;5.30;;
59167;SDS011;44948;55.046;73.266;2022-08-19T07:02:20;27.08;;;3.35;;
59167;SDS011;44948;55.046;73.266;2022-08-19T07:04:04;6.80;;;1.70;;
59167;SDS011;44948;55.046;73.266;2022-08-19T07:05:51;8.85;;;1.88;;
59167;SDS011;44948;55.046;73.266;2022-08-19T07:07:34;24.65;;;4.65;;
59167;SDS011;44948;55.046;73.266;2022-08-19T07:09:22;34.38;;;5.05;;
59167;SDS011;44948;55.046;73.266;2022-08-19T07:11:07;20.07;;;3.57;;
59167;SDS011;44948;55.046;73.266;2022-08-19T07:12:51;19.15;;;3.63;;
59167;SDS011;44948;55.046;73.266;2022-08-19T07:14:36;21.20;;;3.97;;
59167;SDS011;44948;55.046;73.266;2022-08-19T07:16:22;20.52;;;4.78;;
59167;SDS011;44948;55.046;73.266;2022-08-19T07:18:07;16.08;;;4.80;;
59167;SDS011;44948;55.046;73.266;2022-08-19T07:19:55;17.58;;;4.15;;
59167;SDS011;44948;55.046;73.266;2022-08-19T07:21:38;16.57;;;3.83;;
59167;SDS011;44948;55.046;73.266;2022-08-19T07:23:23;19.13;;;2.80;;
59167;SDS011;44948;55.046;73.266;2022-08-19T07:25:09;16.63;;;2.97;;
59167;SDS011;44948;55.046;73.266;2022-08-19T07:26:52;10.13;;;2.15;;
59167;SDS011;44948;55.046;73.266;2022-08-19T07:28:39;4.50;;;1.90;;
59167;SDS011;44948;55.046;73.266;2022-08-19T07:30:24;8.60;;;1.90;;
59167;SDS011;44948;55.046;73.266;2022-08-19T07:32:09;7.97;;;2.45;;
59167;SDS011;44948;55.046;73.266;2022-08-19T07:33:54;5.88;;;2.58;;
59167;SDS011;44948;55.046;73.266;2022-08-19T07:35:38;9.13;;;3.40;;
59167;SDS011;44948;55.046;73.266;2022-08-19T07:37:26;4.43;;;1.67;;
59167;SDS011;44948;55.046;73.266;2022-08-19T07:39:17;6.82;;;1.45;;
59167;SDS011;44948;55.046;73.266;2022-08-19T07:41:02;6.03;;;3.40;;
59167;SDS011;44948;55.046;73.266;2022-08-19T07:42:47;7.18;;;1.75;;
59167;SDS011;44948;55.046;73.266;2022-08-19T07:44:33;7.10;;;1.80;;
59167;SDS011;44948;55.046;73.266;2022-08-19T07:46:17;7.85;;;1.60;;
59167;SDS011;44948;55.046;73.266;2022-08-19T07:48:01;7.93;;;2.75;;
59167;SDS011;44948;55.046;73.266;2022-08-19T07:51:30;15.73;;;8.73;;
59167;SDS011;44948;55.046;73.266;2022-08-19T07:53:13;17.58;;;11.52;;
59167;SDS011;44948;55.046;73.266;2022-08-19T07:54:59;12.60;;;4.22;;
59167;SDS011;44948;55.046;73.266;2022-08-19T07:56:45;12.02;;;5.70;;
59167;SDS011;44948;55.046;73.266;2022-08-19T07:58:48;11.77;;;3.75;;
59167;SDS011;44948;55.046;73.266;2022-08-19T08:00:34;10.27;;;3.80;;
59167;SDS011;44948;55.046;73.266;2022-08-19T08:02:17;26.00;;;5.20;;
59167;SDS011;44948;55.046;73.266;2022-08-19T08:04:01;19.90;;;3.80;;
59167;SDS011;44948;55.046;73.266;2022-08-19T08:06:01;21.65;;;3.47;;
59167;SDS011;44948;55.046;73.266;2022-08-19T08:08:02;9.70;;;2.63;;
59167;SDS011;44948;55.046;73.266;2022-08-19T08:10:28;12.77;;;3.03;;
59167;SDS011;44948;55.046;73.266;2022-08-19T08:12:22;19.50;;;5.75;;
59167;SDS011;44948;55.046;73.266;2022-08-19T08:14:22;41.50;;;8.43;;
59167;SDS011;44948;55.046;73.266;2022-08-19T08:16:09;5.35;;;2.40;;
59167;SDS011;44948;55.046;73.266;2022-08-19T08:17:55;6.97;;;3.03;;
59167;SDS011;44948;55.046;73.266;2022-08-19T08:19:42;6.43;;;2.15;;
59167;SDS011;44948;55.046;73.266;2022-08-19T08:21:26;6.32;;;2.65;;
59167;SDS011;44948;55.046;73.266;2022-08-19T08:23:08;7.95;;;2.78;;
59167;SDS011;44948;55.046;73.266;2022-08-19T08:25:17;7.07;;;2.65;;
59167;SDS011;44948;55.046;73.266;2022-08-19T08:27:01;4.40;;;2.55;;
59167;SDS011;44948;55.046;73.266;2022-08-19T08:28:48;6.60;;;2.35;;
59167;SDS011;44948;55.046;73.266;2022-08-19T08:30:31;5.97;;;2.30;;
59167;SDS011;44948;55.046;73.266;2022-08-19T08:32:18;4.22;;;2.33;;
59167;SDS011;44948;55.046;73.266;2022-08-19T08:34:00;6.07;;;2.70;;
59167;SDS011;44948;55.046;73.266;2022-08-19T08:35:43;3.72;;;1.50;;
59167;SDS011;44948;55.046;73.266;2022-08-19T08:37:29;4.85;;;2.08;;
59167;SDS011;44948;55.046;73.266;2022-08-19T08:39:16;6.88;;;2.55;;
59167;SDS011;44948;55.046;73.266;2022-08-19T08:41:06;2.35;;;1.50;;
59167;SDS011;44948;55.046;73.266;2022-08-19T08:45:11;17.23;;;4.43;;
59167;SDS011;44948;55.046;73.266;2022-08-19T08:47:01;10.07;;;3.97;;
59167;SDS011;44948;55.046;73.266;2022-08-19T08:48:54;8.13;;;3.60;;
59167;SDS011;44948;55.046;73.266;2022-08-19T08:50:59;5.38;;;2.45;;
59167;SDS011;44948;55.046;73.266;2022-08-19T08:52:50;4.20;;;2.10;;
59167;SDS011;44948;55.046;73.266;2022-08-19T08:54:43;3.85;;;1.80;;
59167;SDS011;44948;55.046;73.266;2022-08-19T08:56:28;6.68;;;2.08;;
59167;SDS011;44948;55.046;73.266;2022-08-19T08:58:24;4.47;;;1.80;;
59167;SDS011;44948;55.046;73.266;2022-08-19T09:00:25;6.65;;;2.10;;
59167;SDS011;44948;55.046;73.266;2022-08-19T09:02:11;6.43;;;2.60;;
59167;SDS011;44948;55.046;73.266;2022-08-19T09:04:05;10.43;;;4.32;;
59167;SDS011;44948;55.046;73.266;2022-08-19T09:09:36;4.13;;;2.67;;
59167;SDS011;44948;55.046;73.266;2022-08-19T09:11:40;4.93;;;1.90;;
59167;SDS011;44948;55.046;73.266;2022-08-19T09:15:31;2.67;;;1.60;;
59167;SDS011;44948;55.046;73.266;2022-08-19T09:17:30;6.30;;;2.50;;
59167;SDS011;44948;55.046;73.266;2022-08-19T09:19:15;7.82;;;2.25;;
59167;SDS011;44948;55.046;73.266;2022-08-19T09:22:45;8.82;;;3.08;;
59167;SDS011;44948;55.046;73.266;2022-08-19T09:24:30;7.05;;;3.10;;
59167;SDS011;44948;55.046;73.266;2022-08-19T09:26:16;6.43;;;2.53;;
59167;SDS011;44948;55.046;73.266;2022-08-19T09:28:04;8.27;;;2.90;;
59167;SDS011;44948;55.046;73.266;2022-08-19T09:29:47;10.00;;;2.95;;
59167;SDS011;44948;55.046;73.266;2022-08-19T09:33:16;4.63;;;2.22;;
59167;SDS011;44948;55.046;73.266;2022-08-19T09:35:02;4.90;;;2.75;;
59167;SDS011;44948;55.046;73.266;2022-08-19T09:36:50;7.30;;;2.83;;
59167;SDS011;44948;55.046;73.266;2022-08-19T09:38:35;6.68;;;2.83;;
59167;SDS011;44948;55.046;73.266;2022-08-19T09:40:18;4.28;;;2.72;;
59167;SDS011;44948;55.046;73.266;2022-08-19T09:42:01;17.45;;;4.65;;
59167;SDS011;44948;55.046;73.266;2022-08-19T09:43:45;13.85;;;4.20;;
59167;SDS011;44948;55.046;73.266;2022-08-19T09:45:32;7.30;;;3.33;;
59167;SDS011;44948;55.046;73.266;2022-08-19T09:47:18;4.90;;;3.33;;
59167;SDS011;44948;55.046;73.266;2022-08-19T09:49:04;6.47;;;3.38;;
59167;SDS011;44948;55.046;73.266;2022-08-19T09:50:53;9.05;;;3.33;;
59167;SDS011;44948;55.046;73.266;2022-08-19T09:52:37;9.60;;;3.40;;
59167;SDS011;44948;55.046;73.266;2022-08-19T09:54:21;7.63;;;2.80;;
59167;SDS011;44948;55.046;73.266;2022-08-19T09:56:11;8.70;;;3.20;;
59167;SDS011;44948;55.046;73.266;2022-08-19T09:57:54;5.57;;;2.90;;
59167;SDS011;44948;55.046;73.266;2022-08-19T09:59:36;4.80;;;2.88;;
59167;SDS011;44948;55.046;73.266;2022-08-19T10:01:25;4.97;;;2.63;;
59167;SDS011;44948;55.046;73.266;2022-08-19T10:03:09;5.72;;;3.13;;
59167;SDS011;44948;55.046;73.266;2022-08-19T10:04:54;10.63;;;2.92;;
59167;SDS011;44948;55.046;73.266;2022-08-19T10:06:58;5.63;;;3.00;;
59167;SDS011;44948;55.046;73.266;2022-08-19T10:08:40;8.80;;;3.30;;
59167;SDS011;44948;55.046;73.266;2022-08-19T10:10:29;10.35;;;4.30;;
59167;SDS011;44948;55.046;73.266;2022-08-19T10:12:11;20.53;;;4.23;;
59167;SDS011;44948;55.046;73.266;2022-08-19T10:14:00;10.95;;;3.92;;
59167;SDS011;44948;55.046;73.266;2022-08-19T10:18:04;10.85;;;4.20;;
59167;SDS011;44948;55.046;73.266;2022-08-19T10:19:55;12.85;;;4.70;;
59167;SDS011;44948;55.046;73.266;2022-08-19T10:21:41;42.03;;;9.02;;
59167;SDS011;44948;55.046;73.266;2022-08-19T10:23:31;27.75;;;7.53;;
59167;SDS011;44948;55.046;73.266;2022-08-19T10:25:17;26.65;;;7.93;;
59167;SDS011;44948;55.046;73.266;2022-08-19T10:27:08;21.60;;;7.07;;
59167;SDS011;44948;55.046;73.266;2022-08-19T10:28:58;10.93;;;4.57;;
59167;SDS011;44948;55.046;73.266;2022-08-19T10:30:42;11.43;;;5.10;;
59167;SDS011;44948;55.046;73.266;2022-08-19T10:32:33;16.75;;;5.82;;
59167;SDS011;44948;55.046;73.266;2022-08-19T10:34:18;13.65;;;6.93;;
59167;SDS011;44948;55.046;73.266;2022-08-19T10:36:02;15.02;;;5.45;;
59167;SDS011;44948;55.046;73.266;2022-08-19T10:37:48;12.23;;;4.85;;
59167;SDS011;44948;55.046;73.266;2022-08-19T10:39:36;25.05;;;8.05;;
59167;SDS011;44948;55.046;73.266;2022-08-19T10:41:20;30.17;;;7.78;;
59167;SDS011;44948;55.046;73.266;2022-08-19T10:43:10;18.10;;;7.65;;
59167;SDS011;44948;55.046;73.266;2022-08-19T10:44:55;13.68;;;6.68;;
59167;SDS011;44948;55.046;73.266;2022-08-19T10:46:41;11.60;;;5.63;;